Time,TemperatureF,DewpointF,PressureIn,WindDirection,WindDirectionDegrees,WindSpeedMPH,WindSpeedGustMPH,Humidity,HourlyPrecipIn,Conditions,Clouds,dailyrainin,SolarRadiationWatts/m^2,SoftwareType,DateUTC
2013-09-20 00:11:00,58.0,25.0,-100.00,NNW,327,0.0,3.0,28,-99.99,,,0.00,0.000000,,2013-09-20 07:11:00,
2013-09-20 00:22:00,58.0,25.0,-100.00,NNW,327,0.0,3.0,28,-99.99,,,0.00,0.000000,,2013-09-20 07:22:00,
2013-09-20 00:32:00,58.0,25.0,-100.00,NNW,327,0.0,3.0,28,-99.99,,,0.00,0.000000,,2013-09-20 07:32:00,
2013-09-20 01:21:00,56.0,27.0,-100.00,NW,311,0.0,3.0,33,-99.99,,,0.00,0.000000,,2013-09-20 08:21:00,
2013-09-20 01:32:00,56.0,27.0,-100.00,NW,311,0.0,3.0,33,-99.99,,,0.00,0.000000,,2013-09-20 08:32:00,
2013-09-20 02:22:00,55.0,29.0,-100.00,SW,218,1.0,4.0,37,-99.99,,,0.00,0.000000,,2013-09-20 09:22:00,
2013-09-20 02:33:00,55.0,29.0,-100.00,SW,218,1.0,4.0,37,-99.99,,,0.00,0.000000,,2013-09-20 09:33:00,
2013-09-20 05:22:00,54.0,26.0,-100.00,SE,136,2.0,8.0,33,-99.99,,,0.00,0.000000,,2013-09-20 12:22:00,
2013-09-20 05:32:00,54.0,26.0,-100.00,SE,136,2.0,8.0,33,-99.99,,,0.00,0.000000,,2013-09-20 12:32:00,
2013-09-20 07:21:00,52.0,19.0,-100.00,SE,130,4.0,7.0,27,-99.99,,,0.00,0.000000,,2013-09-20 14:21:00,
2013-09-20 07:32:00,52.0,19.0,-100.00,SE,130,4.0,7.0,27,-99.99,,,0.00,0.000000,,2013-09-20 14:32:00,
2013-09-20 09:40:00,61.0,26.0,-100.00,SSW,202,4.0,9.0,26,-99.99,,,0.00,104.000000,,2013-09-20 16:40:00,
2013-09-20 10:13:00,61.0,26.0,-100.00,SSW,202,4.0,9.0,26,-99.99,,,0.00,104.000000,,2013-09-20 17:13:00,
2013-09-20 10:40:00,65.0,31.0,-100.00,SW,216,5.0,18.0,28,0.00,,,0.00,118.000000,,2013-09-20 17:40:00,
2013-09-20 12:40:00,73.0,33.0,-100.00,SW,233,5.0,18.0,23,-99.99,,,0.00,494.000000,,2013-09-20 19:40:00,
2013-09-20 13:40:00,75.0,31.0,-100.00,ESE,121,4.0,18.0,20,0.00,,,0.00,510.000000,,2013-09-20 20:40:00,
2013-09-20 14:12:00,75.0,31.0,-100.00,ESE,121,4.0,18.0,20,0.00,,,0.00,510.000000,,2013-09-20 21:12:00,
2013-09-20 14:40:00,73.0,31.0,-100.00,SW,228,7.0,18.0,21,0.00,,,0.00,214.000000,,2013-09-20 21:40:00,
2013-09-20 15:14:00,73.0,31.0,-100.00,SW,228,7.0,18.0,21,0.00,,,0.00,214.000000,,2013-09-20 22:14:00,
2013-09-20 15:23:00,73.0,31.0,-100.00,SW,228,7.0,18.0,21,0.00,,,0.00,214.000000,,2013-09-20 22:23:00,
2013-09-20 15:33:00,73.0,31.0,-100.00,SW,228,7.0,18.0,21,0.00,,,0.00,214.000000,,2013-09-20 22:33:00,
2013-09-20 15:40:00,67.0,32.0,-100.00,WSW,254,5.0,22.0,27,0.00,,,0.00,152.000000,,2013-09-20 22:40:00,
2013-09-20 16:13:00,67.0,32.0,-100.00,WSW,254,5.0,22.0,27,0.00,,,0.00,152.000000,,2013-09-20 23:13:00,
2013-09-20 16:22:00,67.0,32.0,-100.00,WSW,254,5.0,22.0,27,0.00,,,0.00,152.000000,,2013-09-20 23:22:00,
2013-09-20 16:34:00,67.0,32.0,-100.00,WSW,254,5.0,22.0,27,0.00,,,0.00,152.000000,,2013-09-20 23:34:00,
2013-09-20 16:40:00,61.0,34.0,-100.00,West,264,3.0,12.0,36,0.00,,,0.00,84.000000,,2013-09-20 23:40:00,
2013-09-20 17:11:00,61.0,34.0,-100.00,West,264,3.0,12.0,36,0.00,,,0.00,84.000000,,2013-09-21 00:11:00,
2013-09-20 17:21:00,61.0,34.0,-100.00,West,264,3.0,12.0,36,0.00,,,0.00,84.000000,,2013-09-21 00:21:00,
2013-09-20 17:32:00,61.0,34.0,-100.00,West,264,3.0,12.0,36,0.00,,,0.00,84.000000,,2013-09-21 00:32:00,
2013-09-20 17:40:00,53.0,46.0,-100.00,NNE,20,3.0,11.0,76,0.00,,,0.00,55.000000,,2013-09-21 00:40:00,
2013-09-20 18:22:00,53.0,46.0,-100.00,NNE,20,3.0,11.0,76,0.00,,,0.00,55.000000,,2013-09-21 01:22:00,
2013-09-20 18:32:00,53.0,46.0,-100.00,NNE,20,3.0,11.0,76,0.00,,,0.00,55.000000,,2013-09-21 01:32:00,
2013-09-20 18:40:00,47.0,46.0,-100.00,WNW,301,3.0,7.0,96,0.05,,,0.05,4.000000,,2013-09-21 01:40:00,
2013-09-20 19:12:00,47.0,46.0,-100.00,WNW,301,3.0,7.0,96,0.05,,,0.05,4.000000,,2013-09-21 02:12:00,
2013-09-20 19:22:00,47.0,46.0,-100.00,WNW,301,3.0,7.0,96,0.05,,,0.05,4.000000,,2013-09-21 02:22:00,
2013-09-20 19:32:00,47.0,46.0,-100.00,WNW,301,3.0,7.0,96,0.05,,,0.05,4.000000,,2013-09-21 02:32:00,
2013-09-20 19:40:00,46.0,45.0,-100.00,West,274,3.0,7.0,97,0.13,,,0.18,0.000000,,2013-09-21 02:40:00,
2013-09-20 20:12:00,46.0,45.0,-100.00,West,274,3.0,7.0,97,0.13,,,0.18,0.000000,,2013-09-21 03:12:00,
2013-09-20 20:22:00,46.0,45.0,-100.00,West,274,3.0,7.0,97,0.13,,,0.18,0.000000,,2013-09-21 03:22:00,
2013-09-20 20:34:00,46.0,45.0,-100.00,West,274,3.0,7.0,97,0.13,,,0.18,0.000000,,2013-09-21 03:34:00,
2013-09-20 20:40:00,43.0,42.0,-100.00,WNW,291,5.0,12.0,97,0.25,,,0.43,0.000000,,2013-09-21 03:40:00,
2013-09-20 21:14:00,43.0,42.0,-100.00,WNW,291,5.0,12.0,97,0.25,,,0.43,0.000000,,2013-09-21 04:14:00,
2013-09-20 21:24:00,43.0,42.0,-100.00,WNW,291,5.0,12.0,97,0.25,,,0.43,0.000000,,2013-09-21 04:24:00,
2013-09-20 21:33:00,43.0,42.0,-100.00,WNW,291,5.0,12.0,97,0.25,,,0.43,0.000000,,2013-09-21 04:33:00,
2013-09-20 21:40:00,43.0,42.0,-100.00,WNW,303,3.0,11.0,97,0.02,,,0.45,0.000000,,2013-09-21 04:40:00,
2013-09-20 22:13:00,43.0,42.0,-100.00,WNW,303,3.0,11.0,97,0.02,,,0.45,0.000000,,2013-09-21 05:13:00,
2013-09-20 22:23:00,43.0,42.0,-100.00,WNW,303,3.0,11.0,97,0.02,,,0.45,0.000000,,2013-09-21 05:23:00,
2013-09-20 22:34:00,43.0,42.0,-100.00,WNW,303,3.0,11.0,97,0.02,,,0.45,0.000000,,2013-09-21 05:34:00,
2013-09-20 22:40:00,42.0,41.0,-100.00,East,98,0.0,5.0,96,0.03,,,0.48,0.000000,,2013-09-21 05:40:00,
2013-09-20 23:12:00,42.0,41.0,-100.00,East,98,0.0,5.0,96,0.03,,,0.48,0.000000,,2013-09-21 06:12:00,
2013-09-20 23:22:00,42.0,41.0,-100.00,East,98,0.0,5.0,96,0.03,,,0.48,0.000000,,2013-09-21 06:22:00,
2013-09-20 23:32:00,42.0,41.0,-100.00,East,98,0.0,5.0,96,0.03,,,0.48,0.000000,,2013-09-21 06:32:00,
2013-09-20 23:40:00,42.0,41.0,-100.00,SE,137,0.0,3.0,95,0.02,,,0.50,0.000000,,2013-09-21 06:40:00,